sensor_id;sensor_type;location;lat;lon;timestamp;P1;durP1;ratioP1;P2;durP2;ratioP2
81950;SDS011;71452;52.562;5.642;2023-10-09T00:00:56;13.80;;;4.80;;
81950;SDS011;71452;52.562;5.642;2023-10-09T00:03:29;14.25;;;5.80;;
81950;SDS011;71452;52.562;5.642;2023-10-09T00:05:59;15.52;;;5.75;;
81950;SDS011;71452;52.562;5.642;2023-10-09T00:08:29;13.10;;;5.07;;
81950;SDS011;71452;52.562;5.642;2023-10-09T00:11:03;11.52;;;4.90;;
81950;SDS011;71452;52.562;5.642;2023-10-09T00:13:42;11.52;;;5.10;;
81950;SDS011;71452;52.562;5.642;2023-10-09T00:16:23;19.33;;;6.60;;
81950;SDS011;71452;52.562;5.642;2023-10-09T00:19:02;12.02;;;5.38;;
81950;SDS011;71452;52.562;5.642;2023-10-09T00:21:43;9.98;;;4.75;;
81950;SDS011;71452;52.562;5.642;2023-10-09T00:24:13;10.85;;;5.38;;
81950;SDS011;71452;52.562;5.642;2023-10-09T00:26:51;18.02;;;6.30;;
81950;SDS011;71452;52.562;5.642;2023-10-09T00:31:54;20.23;;;6.05;;
81950;SDS011;71452;52.562;5.642;2023-10-09T00:37:05;12.05;;;5.35;;
81950;SDS011;71452;52.562;5.642;2023-10-09T00:39:36;15.60;;;6.28;;
81950;SDS011;71452;52.562;5.642;2023-10-09T00:42:12;17.30;;;6.22;;
81950;SDS011;71452;52.562;5.642;2023-10-09T00:44:51;16.08;;;6.00;;
81950;SDS011;71452;52.562;5.642;2023-10-09T00:47:21;17.75;;;7.18;;
81950;SDS011;71452;52.562;5.642;2023-10-09T00:49:54;16.55;;;7.22;;
81950;SDS011;71452;52.562;5.642;2023-10-09T00:52:34;15.00;;;6.53;;
81950;SDS011;71452;52.562;5.642;2023-10-09T00:55:09;18.02;;;6.43;;
81950;SDS011;71452;52.562;5.642;2023-10-09T00:57:50;17.23;;;6.85;;
81950;SDS011;71452;52.562;5.642;2023-10-09T01:00:23;15.18;;;6.80;;
81950;SDS011;71452;52.562;5.642;2023-10-09T01:02:58;16.65;;;7.20;;
81950;SDS011;71452;52.562;5.642;2023-10-09T01:08:18;16.95;;;6.65;;
81950;SDS011;71452;52.562;5.642;2023-10-09T01:10:55;20.52;;;7.80;;
81950;SDS011;71452;52.562;5.642;2023-10-09T01:13:37;16.85;;;6.47;;
81950;SDS011;71452;52.562;5.642;2023-10-09T01:16:18;18.02;;;7.82;;
81950;SDS011;71452;52.562;5.642;2023-10-09T01:18:48;17.30;;;7.00;;
81950;SDS011;71452;52.562;5.642;2023-10-09T01:21:19;19.40;;;7.88;;
81950;SDS011;71452;52.562;5.642;2023-10-09T01:23:53;17.75;;;8.57;;
81950;SDS011;71452;52.562;5.642;2023-10-09T01:26:34;19.50;;;7.50;;
81950;SDS011;71452;52.562;5.642;2023-10-09T01:29:10;17.65;;;7.97;;
81950;SDS011;71452;52.562;5.642;2023-10-09T01:34:17;15.13;;;7.53;;
81950;SDS011;71452;52.562;5.642;2023-10-09T01:36:50;16.65;;;6.75;;
81950;SDS011;71452;52.562;5.642;2023-10-09T01:39:23;17.50;;;7.78;;
81950;SDS011;71452;52.562;5.642;2023-10-09T01:41:54;13.10;;;6.15;;
81950;SDS011;71452;52.562;5.642;2023-10-09T01:44:27;14.52;;;6.80;;
81950;SDS011;71452;52.562;5.642;2023-10-09T01:47:00;20.85;;;8.07;;
81950;SDS011;71452;52.562;5.642;2023-10-09T01:49:33;15.02;;;7.85;;
81950;SDS011;71452;52.562;5.642;2023-10-09T01:52:03;14.95;;;7.00;;
81950;SDS011;71452;52.562;5.642;2023-10-09T01:54:38;15.93;;;6.53;;
81950;SDS011;71452;52.562;5.642;2023-10-09T01:57:08;14.45;;;6.57;;
81950;SDS011;71452;52.562;5.642;2023-10-09T01:59:39;15.52;;;7.00;;
81950;SDS011;71452;52.562;5.642;2023-10-09T02:02:10;9.57;;;4.80;;
81950;SDS011;71452;52.562;5.642;2023-10-09T02:04:51;16.98;;;6.45;;
81950;SDS011;71452;52.562;5.642;2023-10-09T02:07:31;13.27;;;6.03;;
81950;SDS011;71452;52.562;5.642;2023-10-09T02:10:11;15.32;;;6.20;;
81950;SDS011;71452;52.562;5.642;2023-10-09T02:12:51;11.98;;;5.72;;
81950;SDS011;71452;52.562;5.642;2023-10-09T02:15:23;14.80;;;5.95;;
81950;SDS011;71452;52.562;5.642;2023-10-09T02:18:05;15.38;;;6.82;;
81950;SDS011;71452;52.562;5.642;2023-10-09T02:20:52;12.55;;;6.10;;
81950;SDS011;71452;52.562;5.642;2023-10-09T02:23:38;16.77;;;6.68;;
81950;SDS011;71452;52.562;5.642;2023-10-09T02:26:15;11.23;;;5.00;;
81950;SDS011;71452;52.562;5.642;2023-10-09T02:28:51;13.98;;;5.05;;
81950;SDS011;71452;52.562;5.642;2023-10-09T02:31:24;10.60;;;5.72;;
81950;SDS011;71452;52.562;5.642;2023-10-09T02:34:01;11.60;;;6.07;;
81950;SDS011;71452;52.562;5.642;2023-10-09T02:36:31;9.98;;;4.10;;
81950;SDS011;71452;52.562;5.642;2023-10-09T02:39:04;8.85;;;4.28;;
81950;SDS011;71452;52.562;5.642;2023-10-09T02:41:49;10.98;;;4.75;;
81950;SDS011;71452;52.562;5.642;2023-10-09T02:44:21;8.80;;;3.67;;
81950;SDS011;71452;52.562;5.642;2023-10-09T02:46:56;8.57;;;4.15;;
81950;SDS011;71452;52.562;5.642;2023-10-09T02:49:31;6.97;;;3.80;;
81950;SDS011;71452;52.562;5.642;2023-10-09T02:52:00;8.18;;;3.63;;
81950;SDS011;71452;52.562;5.642;2023-10-09T02:57:09;8.15;;;3.95;;
81950;SDS011;71452;52.562;5.642;2023-10-09T02:59:48;8.85;;;4.40;;
81950;SDS011;71452;52.562;5.642;2023-10-09T03:02:17;7.03;;;3.63;;
81950;SDS011;71452;52.562;5.642;2023-10-09T03:04:48;6.75;;;3.72;;
81950;SDS011;71452;52.562;5.642;2023-10-09T03:07:21;9.13;;;4.10;;
81950;SDS011;71452;52.562;5.642;2023-10-09T03:09:50;9.02;;;3.83;;
81950;SDS011;71452;52.562;5.642;2023-10-09T03:12:21;11.88;;;3.05;;
81950;SDS011;71452;52.562;5.642;2023-10-09T03:14:53;10.98;;;3.92;;
81950;SDS011;71452;52.562;5.642;2023-10-09T03:17:24;8.05;;;3.00;;
81950;SDS011;71452;52.562;5.642;2023-10-09T03:19:53;7.90;;;3.13;;
81950;SDS011;71452;52.562;5.642;2023-10-09T03:22:24;9.02;;;3.75;;
81950;SDS011;71452;52.562;5.642;2023-10-09T03:24:53;9.50;;;3.58;;
81950;SDS011;71452;52.562;5.642;2023-10-09T03:27:24;7.40;;;3.13;;
81950;SDS011;71452;52.562;5.642;2023-10-09T03:29:54;13.30;;;4.03;;
81950;SDS011;71452;52.562;5.642;2023-10-09T03:32:23;9.38;;;3.22;;
81950;SDS011;71452;52.562;5.642;2023-10-09T03:34:52;7.50;;;2.92;;
81950;SDS011;71452;52.562;5.642;2023-10-09T03:37:21;10.05;;;3.38;;
81950;SDS011;71452;52.562;5.642;2023-10-09T03:39:59;8.85;;;3.65;;
81950;SDS011;71452;52.562;5.642;2023-10-09T03:42:31;9.00;;;4.22;;
81950;SDS011;71452;52.562;5.642;2023-10-09T03:45:02;8.15;;;3.90;;
81950;SDS011;71452;52.562;5.642;2023-10-09T03:47:38;10.50;;;4.05;;
81950;SDS011;71452;52.562;5.642;2023-10-09T03:50:09;7.95;;;3.60;;
81950;SDS011;71452;52.562;5.642;2023-10-09T03:52:49;7.78;;;3.45;;
81950;SDS011;71452;52.562;5.642;2023-10-09T03:55:18;6.85;;;3.03;;
81950;SDS011;71452;52.562;5.642;2023-10-09T03:57:55;6.63;;;3.50;;
81950;SDS011;71452;52.562;5.642;2023-10-09T04:00:27;9.73;;;3.42;;
81950;SDS011;71452;52.562;5.642;2023-10-09T04:03:00;8.00;;;3.42;;
81950;SDS011;71452;52.562;5.642;2023-10-09T04:05:31;9.60;;;2.90;;
81950;SDS011;71452;52.562;5.642;2023-10-09T04:08:00;13.43;;;2.80;;
81950;SDS011;71452;52.562;5.642;2023-10-09T04:10:37;8.05;;;2.53;;
81950;SDS011;71452;52.562;5.642;2023-10-09T04:13:19;6.25;;;2.85;;
81950;SDS011;71452;52.562;5.642;2023-10-09T04:15:58;7.50;;;3.33;;
81950;SDS011;71452;52.562;5.642;2023-10-09T04:18:35;4.72;;;2.80;;
81950;SDS011;71452;52.562;5.642;2023-10-09T04:21:05;5.72;;;2.47;;
81950;SDS011;71452;52.562;5.642;2023-10-09T04:23:44;8.98;;;3.15;;
81950;SDS011;71452;52.562;5.642;2023-10-09T04:26:35;7.28;;;2.55;;
81950;SDS011;71452;52.562;5.642;2023-10-09T04:29:05;10.23;;;2.92;;
81950;SDS011;71452;52.562;5.642;2023-10-09T04:31:36;11.52;;;2.65;;
81950;SDS011;71452;52.562;5.642;2023-10-09T04:34:05;6.47;;;2.72;;
81950;SDS011;71452;52.562;5.642;2023-10-09T04:36:47;7.68;;;3.00;;
81950;SDS011;71452;52.562;5.642;2023-10-09T04:39:17;9.13;;;2.72;;
81950;SDS011;71452;52.562;5.642;2023-10-09T04:42:10;8.65;;;3.10;;
81950;SDS011;71452;52.562;5.642;2023-10-09T04:44:54;10.10;;;3.00;;
81950;SDS011;71452;52.562;5.642;2023-10-09T04:47:38;10.15;;;2.60;;
81950;SDS011;71452;52.562;5.642;2023-10-09T04:50:15;8.65;;;2.88;;
81950;SDS011;71452;52.562;5.642;2023-10-09T04:52:57;6.95;;;2.90;;
81950;SDS011;71452;52.562;5.642;2023-10-09T04:55:46;9.60;;;2.60;;
81950;SDS011;71452;52.562;5.642;2023-10-09T04:58:19;7.65;;;2.92;;
81950;SDS011;71452;52.562;5.642;2023-10-09T05:03:30;5.15;;;2.70;;
81950;SDS011;71452;52.562;5.642;2023-10-09T05:06:11;9.65;;;3.08;;
81950;SDS011;71452;52.562;5.642;2023-10-09T05:09:11;4.22;;;2.42;;
81950;SDS011;71452;52.562;5.642;2023-10-09T05:11:46;8.52;;;2.28;;
81950;SDS011;71452;52.562;5.642;2023-10-09T05:14:35;4.47;;;2.95;;
81950;SDS011;71452;52.562;5.642;2023-10-09T05:17:15;5.05;;;2.53;;
81950;SDS011;71452;52.562;5.642;2023-10-09T05:19:42;6.00;;;2.20;;
81950;SDS011;71452;52.562;5.642;2023-10-09T05:22:43;6.43;;;2.60;;
81950;SDS011;71452;52.562;5.642;2023-10-09T05:25:23;7.45;;;2.85;;
81950;SDS011;71452;52.562;5.642;2023-10-09T05:28:04;8.07;;;2.40;;
81950;SDS011;71452;52.562;5.642;2023-10-09T05:30:46;7.22;;;2.65;;
81950;SDS011;71452;52.562;5.642;2023-10-09T05:33:30;7.68;;;2.45;;
81950;SDS011;71452;52.562;5.642;2023-10-09T05:36:00;6.25;;;2.40;;
81950;SDS011;71452;52.562;5.642;2023-10-09T05:38:42;8.57;;;2.63;;
81950;SDS011;71452;52.562;5.642;2023-10-09T05:41:24;4.95;;;2.35;;
81950;SDS011;71452;52.562;5.642;2023-10-09T05:44:11;6.88;;;2.75;;
81950;SDS011;71452;52.562;5.642;2023-10-09T05:46:52;7.13;;;3.00;;
81950;SDS011;71452;52.562;5.642;2023-10-09T05:49:50;7.85;;;2.88;;
81950;SDS011;71452;52.562;5.642;2023-10-09T05:52:44;6.50;;;3.40;;
81950;SDS011;71452;52.562;5.642;2023-10-09T05:55:25;8.55;;;2.97;;
81950;SDS011;71452;52.562;5.642;2023-10-09T05:58:16;6.63;;;3.00;;
81950;SDS011;71452;52.562;5.642;2023-10-09T06:00:57;5.07;;;2.45;;
81950;SDS011;71452;52.562;5.642;2023-10-09T06:03:39;4.80;;;2.40;;
81950;SDS011;71452;52.562;5.642;2023-10-09T06:06:22;4.13;;;2.53;;
81950;SDS011;71452;52.562;5.642;2023-10-09T06:09:08;6.13;;;2.65;;
81950;SDS011;71452;52.562;5.642;2023-10-09T06:11:54;4.95;;;2.15;;
81950;SDS011;71452;52.562;5.642;2023-10-09T06:14:41;7.53;;;2.95;;
81950;SDS011;71452;52.562;5.642;2023-10-09T06:17:24;7.45;;;2.55;;
81950;SDS011;71452;52.562;5.642;2023-10-09T06:19:53;8.38;;;3.30;;
81950;SDS011;71452;52.562;5.642;2023-10-09T06:22:49;8.57;;;2.28;;
81950;SDS011;71452;52.562;5.642;2023-10-09T06:25:42;7.32;;;2.53;;
81950;SDS011;71452;52.562;5.642;2023-10-09T06:28:17;6.30;;;2.65;;
81950;SDS011;71452;52.562;5.642;2023-10-09T06:30:58;5.10;;;2.20;;
81950;SDS011;71452;52.562;5.642;2023-10-09T06:33:46;7.63;;;2.53;;
81950;SDS011;71452;52.562;5.642;2023-10-09T06:36:33;3.78;;;1.98;;
81950;SDS011;71452;52.562;5.642;2023-10-09T06:39:14;5.88;;;2.35;;
81950;SDS011;71452;52.562;5.642;2023-10-09T06:41:55;7.28;;;2.67;;
81950;SDS011;71452;52.562;5.642;2023-10-09T06:44:37;6.22;;;2.55;;
81950;SDS011;71452;52.562;5.642;2023-10-09T06:47:20;6.70;;;2.97;;
81950;SDS011;71452;52.562;5.642;2023-10-09T06:49:49;4.75;;;2.72;;
81950;SDS011;71452;52.562;5.642;2023-10-09T06:52:38;8.35;;;1.90;;
81950;SDS011;71452;52.562;5.642;2023-10-09T06:55:27;8.27;;;2.83;;
81950;SDS011;71452;52.562;5.642;2023-10-09T06:58:13;6.65;;;2.53;;
81950;SDS011;71452;52.562;5.642;2023-10-09T07:00:42;9.93;;;3.00;;
81950;SDS011;71452;52.562;5.642;2023-10-09T07:03:40;4.85;;;2.50;;
81950;SDS011;71452;52.562;5.642;2023-10-09T07:06:18;8.07;;;2.63;;
81950;SDS011;71452;52.562;5.642;2023-10-09T07:09:14;6.32;;;2.10;;
81950;SDS011;71452;52.562;5.642;2023-10-09T07:11:48;5.75;;;2.67;;
81950;SDS011;71452;52.562;5.642;2023-10-09T07:14:35;7.85;;;2.50;;
81950;SDS011;71452;52.562;5.642;2023-10-09T07:17:31;6.70;;;2.60;;
81950;SDS011;71452;52.562;5.642;2023-10-09T07:20:13;7.07;;;2.10;;
81950;SDS011;71452;52.562;5.642;2023-10-09T07:23:02;5.72;;;2.35;;
81950;SDS011;71452;52.562;5.642;2023-10-09T07:25:43;5.72;;;3.17;;
81950;SDS011;71452;52.562;5.642;2023-10-09T07:28:26;4.25;;;2.20;;
81950;SDS011;71452;52.562;5.642;2023-10-09T07:31:02;4.57;;;2.25;;
81950;SDS011;71452;52.562;5.642;2023-10-09T07:33:34;7.32;;;2.65;;
81950;SDS011;71452;52.562;5.642;2023-10-09T07:36:16;8.70;;;2.13;;
81950;SDS011;71452;52.562;5.642;2023-10-09T07:41:32;7.80;;;2.50;;
81950;SDS011;71452;52.562;5.642;2023-10-09T07:44:12;5.78;;;2.78;;
81950;SDS011;71452;52.562;5.642;2023-10-09T07:47:01;5.90;;;2.60;;
81950;SDS011;71452;52.562;5.642;2023-10-09T07:49:44;7.30;;;1.98;;
81950;SDS011;71452;52.562;5.642;2023-10-09T07:52:19;10.73;;;2.35;;
81950;SDS011;71452;52.562;5.642;2023-10-09T07:54:51;7.57;;;2.85;;
81950;SDS011;71452;52.562;5.642;2023-10-09T07:57:32;6.50;;;2.53;;
81950;SDS011;71452;52.562;5.642;2023-10-09T08:00:11;6.78;;;2.80;;
81950;SDS011;71452;52.562;5.642;2023-10-09T08:03:00;3.92;;;2.10;;
81950;SDS011;71452;52.562;5.642;2023-10-09T08:05:49;8.30;;;2.88;;
81950;SDS011;71452;52.562;5.642;2023-10-09T08:08:32;8.93;;;2.92;;
81950;SDS011;71452;52.562;5.642;2023-10-09T08:11:30;5.88;;;2.05;;
81950;SDS011;71452;52.562;5.642;2023-10-09T08:14:23;6.20;;;2.08;;
81950;SDS011;71452;52.562;5.642;2023-10-09T08:17:07;7.65;;;2.55;;
81950;SDS011;71452;52.562;5.642;2023-10-09T08:19:47;9.77;;;2.25;;
81950;SDS011;71452;52.562;5.642;2023-10-09T08:22:20;6.45;;;2.30;;
81950;SDS011;71452;52.562;5.642;2023-10-09T08:25:03;5.03;;;2.05;;
81950;SDS011;71452;52.562;5.642;2023-10-09T08:27:33;10.60;;;2.58;;
81950;SDS011;71452;52.562;5.642;2023-10-09T08:30:23;4.72;;;2.42;;
81950;SDS011;71452;52.562;5.642;2023-10-09T08:33:08;6.25;;;2.80;;
81950;SDS011;71452;52.562;5.642;2023-10-09T08:35:50;4.75;;;2.25;;
81950;SDS011;71452;52.562;5.642;2023-10-09T08:38:21;10.73;;;2.53;;
81950;SDS011;71452;52.562;5.642;2023-10-09T08:40:53;6.05;;;2.90;;
81950;SDS011;71452;52.562;5.642;2023-10-09T08:43:23;8.75;;;2.45;;
81950;SDS011;71452;52.562;5.642;2023-10-09T08:45:56;6.18;;;2.72;;
81950;SDS011;71452;52.562;5.642;2023-10-09T08:48:29;5.55;;;2.53;;
81950;SDS011;71452;52.562;5.642;2023-10-09T08:51:03;7.00;;;2.17;;
81950;SDS011;71452;52.562;5.642;2023-10-09T08:53:32;4.57;;;2.08;;
81950;SDS011;71452;52.562;5.642;2023-10-09T08:56:09;13.30;;;2.67;;
81950;SDS011;71452;52.562;5.642;2023-10-09T08:58:40;9.80;;;3.13;;
81950;SDS011;71452;52.562;5.642;2023-10-09T09:01:10;8.02;;;2.25;;
81950;SDS011;71452;52.562;5.642;2023-10-09T09:03:50;6.03;;;2.40;;
81950;SDS011;71452;52.562;5.642;2023-10-09T09:06:21;5.47;;;2.22;;
81950;SDS011;71452;52.562;5.642;2023-10-09T09:08:51;7.07;;;2.70;;
81950;SDS011;71452;52.562;5.642;2023-10-09T09:11:25;6.88;;;2.35;;
81950;SDS011;71452;52.562;5.642;2023-10-09T09:14:05;16.38;;;2.75;;
81950;SDS011;71452;52.562;5.642;2023-10-09T09:16:44;7.50;;;2.38;;
81950;SDS011;71452;52.562;5.642;2023-10-09T09:19:17;10.13;;;2.30;;
81950;SDS011;71452;52.562;5.642;2023-10-09T09:21:51;6.50;;;2.08;;
81950;SDS011;71452;52.562;5.642;2023-10-09T09:24:24;9.02;;;3.25;;
81950;SDS011;71452;52.562;5.642;2023-10-09T09:27:00;6.93;;;2.60;;
81950;SDS011;71452;52.562;5.642;2023-10-09T09:29:39;7.55;;;2.45;;
81950;SDS011;71452;52.562;5.642;2023-10-09T09:32:26;4.88;;;2.35;;
81950;SDS011;71452;52.562;5.642;2023-10-09T09:35:04;9.75;;;2.85;;
81950;SDS011;71452;52.562;5.642;2023-10-09T09:37:44;10.85;;;4.03;;
81950;SDS011;71452;52.562;5.642;2023-10-09T09:40:28;7.45;;;3.28;;
81950;SDS011;71452;52.562;5.642;2023-10-09T09:43:00;10.00;;;3.58;;
81950;SDS011;71452;52.562;5.642;2023-10-09T09:45:37;9.23;;;2.50;;
81950;SDS011;71452;52.562;5.642;2023-10-09T09:48:11;7.90;;;3.05;;
81950;SDS011;71452;52.562;5.642;2023-10-09T09:50:45;7.88;;;2.58;;
81950;SDS011;71452;52.562;5.642;2023-10-09T09:53:19;6.57;;;2.63;;
81950;SDS011;71452;52.562;5.642;2023-10-09T09:55:49;5.55;;;2.70;;
81950;SDS011;71452;52.562;5.642;2023-10-09T09:58:25;8.88;;;2.33;;
81950;SDS011;71452;52.562;5.642;2023-10-09T10:00:59;7.68;;;2.78;;
81950;SDS011;71452;52.562;5.642;2023-10-09T10:03:35;6.65;;;2.67;;
81950;SDS011;71452;52.562;5.642;2023-10-09T10:06:11;10.57;;;3.53;;
81950;SDS011;71452;52.562;5.642;2023-10-09T10:08:44;10.02;;;2.78;;
81950;SDS011;71452;52.562;5.642;2023-10-09T10:14:13;8.82;;;2.72;;
81950;SDS011;71452;52.562;5.642;2023-10-09T10:17:03;7.22;;;2.75;;
81950;SDS011;71452;52.562;5.642;2023-10-09T10:22:48;7.07;;;3.40;;
81950;SDS011;71452;52.562;5.642;2023-10-09T10:28:19;7.43;;;2.58;;
81950;SDS011;71452;52.562;5.642;2023-10-09T10:31:01;8.55;;;2.92;;
81950;SDS011;71452;52.562;5.642;2023-10-09T10:36:33;7.18;;;3.10;;
81950;SDS011;71452;52.562;5.642;2023-10-09T10:39:05;8.25;;;2.50;;
81950;SDS011;71452;52.562;5.642;2023-10-09T10:41:36;8.48;;;2.80;;
81950;SDS011;71452;52.562;5.642;2023-10-09T10:44:23;7.30;;;2.70;;
81950;SDS011;71452;52.562;5.642;2023-10-09T10:47:03;7.32;;;2.67;;
81950;SDS011;71452;52.562;5.642;2023-10-09T10:49:47;8.05;;;2.85;;
81950;SDS011;71452;52.562;5.642;2023-10-09T10:52:20;6.10;;;2.47;;
81950;SDS011;71452;52.562;5.642;2023-10-09T10:55:10;5.07;;;2.33;;
81950;SDS011;71452;52.562;5.642;2023-10-09T10:58:14;5.80;;;2.33;;
81950;SDS011;71452;52.562;5.642;2023-10-09T11:00:52;5.68;;;2.78;;
81950;SDS011;71452;52.562;5.642;2023-10-09T11:03:34;7.82;;;2.60;;
81950;SDS011;71452;52.562;5.642;2023-10-09T11:06:26;4.35;;;2.30;;
81950;SDS011;71452;52.562;5.642;2023-10-09T11:09:08;6.32;;;2.00;;
81950;SDS011;71452;52.562;5.642;2023-10-09T11:11:50;8.57;;;2.20;;
81950;SDS011;71452;52.562;5.642;2023-10-09T11:14:21;9.55;;;2.28;;
81950;SDS011;71452;52.562;5.642;2023-10-09T11:16:49;4.45;;;2.28;;
81950;SDS011;71452;52.562;5.642;2023-10-09T11:19:23;4.10;;;1.90;;
81950;SDS011;71452;52.562;5.642;2023-10-09T11:21:57;7.10;;;2.35;;
81950;SDS011;71452;52.562;5.642;2023-10-09T11:24:53;8.90;;;2.55;;
81950;SDS011;71452;52.562;5.642;2023-10-09T11:27:39;4.68;;;2.17;;
81950;SDS011;71452;52.562;5.642;2023-10-09T11:33:02;7.60;;;2.85;;
81950;SDS011;71452;52.562;5.642;2023-10-09T11:35:40;4.80;;;2.08;;
81950;SDS011;71452;52.562;5.642;2023-10-09T11:38:08;5.47;;;2.22;;
81950;SDS011;71452;52.562;5.642;2023-10-09T11:40:49;5.30;;;1.90;;
81950;SDS011;71452;52.562;5.642;2023-10-09T11:46:19;5.63;;;2.30;;
81950;SDS011;71452;52.562;5.642;2023-10-09T11:49:02;6.18;;;2.40;;
81950;SDS011;71452;52.562;5.642;2023-10-09T11:51:52;9.82;;;2.67;;
81950;SDS011;71452;52.562;5.642;2023-10-09T11:54:39;4.97;;;2.33;;
81950;SDS011;71452;52.562;5.642;2023-10-09T11:57:10;5.20;;;2.28;;
81950;SDS011;71452;52.562;5.642;2023-10-09T11:59:39;6.53;;;2.38;;
81950;SDS011;71452;52.562;5.642;2023-10-09T12:02:09;6.47;;;2.47;;
81950;SDS011;71452;52.562;5.642;2023-10-09T12:04:39;4.13;;;1.65;;
81950;SDS011;71452;52.562;5.642;2023-10-09T12:07:09;5.97;;;1.48;;
81950;SDS011;71452;52.562;5.642;2023-10-09T12:09:38;9.32;;;2.38;;
81950;SDS011;71452;52.562;5.642;2023-10-09T12:12:08;9.25;;;2.50;;
81950;SDS011;71452;52.562;5.642;2023-10-09T12:14:40;3.47;;;1.48;;
81950;SDS011;71452;52.562;5.642;2023-10-09T12:17:09;4.95;;;2.10;;
81950;SDS011;71452;52.562;5.642;2023-10-09T12:19:38;8.93;;;2.83;;
81950;SDS011;71452;52.562;5.642;2023-10-09T12:22:08;8.50;;;2.55;;
81950;SDS011;71452;52.562;5.642;2023-10-09T12:24:41;7.38;;;2.08;;
81950;SDS011;71452;52.562;5.642;2023-10-09T12:27:11;4.18;;;2.35;;
81950;SDS011;71452;52.562;5.642;2023-10-09T12:29:43;7.10;;;2.83;;
81950;SDS011;71452;52.562;5.642;2023-10-09T12:32:15;6.55;;;2.35;;
81950;SDS011;71452;52.562;5.642;2023-10-09T12:34:46;4.95;;;1.55;;
81950;SDS011;71452;52.562;5.642;2023-10-09T12:37:16;5.10;;;1.90;;
81950;SDS011;71452;52.562;5.642;2023-10-09T12:39:46;8.13;;;2.70;;
81950;SDS011;71452;52.562;5.642;2023-10-09T12:42:21;5.50;;;1.95;;
81950;SDS011;71452;52.562;5.642;2023-10-09T12:44:52;6.50;;;2.10;;
81950;SDS011;71452;52.562;5.642;2023-10-09T12:47:23;4.55;;;2.72;;
81950;SDS011;71452;52.562;5.642;2023-10-09T12:49:52;8.88;;;2.42;;
81950;SDS011;71452;52.562;5.642;2023-10-09T12:52:21;8.30;;;2.65;;
81950;SDS011;71452;52.562;5.642;2023-10-09T12:54:55;7.05;;;2.22;;
81950;SDS011;71452;52.562;5.642;2023-10-09T12:57:24;9.00;;;2.65;;
81950;SDS011;71452;52.562;5.642;2023-10-09T12:59:55;4.90;;;1.90;;
81950;SDS011;71452;52.562;5.642;2023-10-09T13:02:24;8.85;;;2.17;;
81950;SDS011;71452;52.562;5.642;2023-10-09T13:04:56;7.60;;;2.58;;
81950;SDS011;71452;52.562;5.642;2023-10-09T13:07:29;11.95;;;2.53;;
81950;SDS011;71452;52.562;5.642;2023-10-09T13:09:58;4.90;;;2.60;;
81950;SDS011;71452;52.562;5.642;2023-10-09T13:12:38;4.50;;;1.60;;
81950;SDS011;71452;52.562;5.642;2023-10-09T13:15:10;4.65;;;1.90;;
81950;SDS011;71452;52.562;5.642;2023-10-09T13:17:39;7.82;;;1.98;;
81950;SDS011;71452;52.562;5.642;2023-10-09T13:20:08;6.35;;;2.03;;
81950;SDS011;71452;52.562;5.642;2023-10-09T13:25:12;6.20;;;2.63;;
81950;SDS011;71452;52.562;5.642;2023-10-09T13:27:50;6.03;;;2.17;;
81950;SDS011;71452;52.562;5.642;2023-10-09T13:30:22;6.47;;;2.42;;
81950;SDS011;71452;52.562;5.642;2023-10-09T13:32:51;6.00;;;2.22;;
81950;SDS011;71452;52.562;5.642;2023-10-09T13:35:20;8.25;;;2.45;;
81950;SDS011;71452;52.562;5.642;2023-10-09T13:38:03;4.30;;;2.05;;
81950;SDS011;71452;52.562;5.642;2023-10-09T13:40:35;4.95;;;2.10;;
81950;SDS011;71452;52.562;5.642;2023-10-09T13:43:04;7.95;;;2.00;;
81950;SDS011;71452;52.562;5.642;2023-10-09T13:45:43;11.35;;;3.28;;
81950;SDS011;71452;52.562;5.642;2023-10-09T13:48:15;7.47;;;2.67;;
81950;SDS011;71452;52.562;5.642;2023-10-09T13:50:46;8.77;;;2.50;;
81950;SDS011;71452;52.562;5.642;2023-10-09T13:53:15;4.25;;;2.08;;
81950;SDS011;71452;52.562;5.642;2023-10-09T13:55:44;5.07;;;2.35;;
81950;SDS011;71452;52.562;5.642;2023-10-09T13:58:13;6.88;;;2.10;;
81950;SDS011;71452;52.562;5.642;2023-10-09T14:00:49;5.47;;;2.33;;
81950;SDS011;71452;52.562;5.642;2023-10-09T14:03:19;6.85;;;2.08;;
81950;SDS011;71452;52.562;5.642;2023-10-09T14:05:50;8.05;;;2.42;;
81950;SDS011;71452;52.562;5.642;2023-10-09T14:08:35;7.18;;;2.60;;
81950;SDS011;71452;52.562;5.642;2023-10-09T14:11:07;8.65;;;2.45;;
81950;SDS011;71452;52.562;5.642;2023-10-09T14:13:40;4.85;;;1.98;;
81950;SDS011;71452;52.562;5.642;2023-10-09T14:16:12;4.40;;;2.80;;
81950;SDS011;71452;52.562;5.642;2023-10-09T14:18:49;7.18;;;2.55;;
81950;SDS011;71452;52.562;5.642;2023-10-09T14:21:22;6.03;;;2.92;;
81950;SDS011;71452;52.562;5.642;2023-10-09T14:23:53;4.80;;;2.00;;
81950;SDS011;71452;52.562;5.642;2023-10-09T14:26:25;6.45;;;2.70;;
81950;SDS011;71452;52.562;5.642;2023-10-09T14:28:55;5.15;;;2.75;;
81950;SDS011;71452;52.562;5.642;2023-10-09T14:31:27;8.20;;;2.92;;
81950;SDS011;71452;52.562;5.642;2023-10-09T14:33:57;6.10;;;2.65;;
81950;SDS011;71452;52.562;5.642;2023-10-09T14:36:27;7.63;;;2.30;;
81950;SDS011;71452;52.562;5.642;2023-10-09T14:38:59;7.88;;;2.50;;
81950;SDS011;71452;52.562;5.642;2023-10-09T14:41:30;9.00;;;2.75;;
81950;SDS011;71452;52.562;5.642;2023-10-09T14:44:00;8.55;;;3.45;;
81950;SDS011;71452;52.562;5.642;2023-10-09T14:46:33;9.82;;;2.67;;
81950;SDS011;71452;52.562;5.642;2023-10-09T14:49:02;7.57;;;2.85;;
81950;SDS011;71452;52.562;5.642;2023-10-09T14:51:31;6.68;;;2.60;;
81950;SDS011;71452;52.562;5.642;2023-10-09T14:54:01;6.63;;;3.03;;
81950;SDS011;71452;52.562;5.642;2023-10-09T14:56:33;8.02;;;2.72;;
81950;SDS011;71452;52.562;5.642;2023-10-09T14:59:03;7.57;;;2.67;;
81950;SDS011;71452;52.562;5.642;2023-10-09T15:01:35;7.22;;;2.35;;
81950;SDS011;71452;52.562;5.642;2023-10-09T15:04:04;7.65;;;2.75;;
81950;SDS011;71452;52.562;5.642;2023-10-09T15:06:37;5.18;;;2.05;;
81950;SDS011;71452;52.562;5.642;2023-10-09T15:09:06;6.90;;;2.30;;
81950;SDS011;71452;52.562;5.642;2023-10-09T15:11:47;5.32;;;2.40;;
81950;SDS011;71452;52.562;5.642;2023-10-09T15:14:17;8.38;;;2.92;;
81950;SDS011;71452;52.562;5.642;2023-10-09T15:16:49;5.95;;;2.70;;
81950;SDS011;71452;52.562;5.642;2023-10-09T15:19:18;6.65;;;2.15;;
81950;SDS011;71452;52.562;5.642;2023-10-09T15:21:55;6.65;;;2.28;;
81950;SDS011;71452;52.562;5.642;2023-10-09T15:24:24;6.25;;;2.38;;
81950;SDS011;71452;52.562;5.642;2023-10-09T15:26:54;8.52;;;2.55;;
81950;SDS011;71452;52.562;5.642;2023-10-09T15:29:25;4.80;;;2.22;;
81950;SDS011;71452;52.562;5.642;2023-10-09T15:32:01;6.20;;;2.33;;
81950;SDS011;71452;52.562;5.642;2023-10-09T15:34:40;5.65;;;2.20;;
81950;SDS011;71452;52.562;5.642;2023-10-09T15:37:09;5.53;;;2.60;;
81950;SDS011;71452;52.562;5.642;2023-10-09T15:39:39;7.60;;;2.38;;
81950;SDS011;71452;52.562;5.642;2023-10-09T15:42:08;9.98;;;2.50;;
81950;SDS011;71452;52.562;5.642;2023-10-09T15:44:39;6.25;;;2.20;;
81950;SDS011;71452;52.562;5.642;2023-10-09T15:47:10;7.05;;;3.15;;
81950;SDS011;71452;52.562;5.642;2023-10-09T15:49:41;6.45;;;2.20;;
81950;SDS011;71452;52.562;5.642;2023-10-09T15:52:10;4.47;;;2.35;;
81950;SDS011;71452;52.562;5.642;2023-10-09T15:54:40;7.82;;;2.38;;
81950;SDS011;71452;52.562;5.642;2023-10-09T15:57:10;3.28;;;1.77;;
81950;SDS011;71452;52.562;5.642;2023-10-09T15:59:39;6.63;;;2.25;;
81950;SDS011;71452;52.562;5.642;2023-10-09T16:02:11;7.63;;;2.80;;
81950;SDS011;71452;52.562;5.642;2023-10-09T16:04:40;5.53;;;2.63;;
81950;SDS011;71452;52.562;5.642;2023-10-09T16:07:10;6.63;;;2.17;;
81950;SDS011;71452;52.562;5.642;2023-10-09T16:09:41;6.07;;;2.33;;
81950;SDS011;71452;52.562;5.642;2023-10-09T16:12:12;4.30;;;2.20;;
81950;SDS011;71452;52.562;5.642;2023-10-09T16:14:42;3.83;;;2.05;;
81950;SDS011;71452;52.562;5.642;2023-10-09T16:17:14;5.88;;;2.13;;